Time;durP1;ratioP1;P1;durP2;ratioP2;P2;SDS_P1;SDS_P2;PMS_P1;PMS_P2;Temp;Humidity;BMP_temperature;BMP_pressure;BME280_temperature;BME280_humidity;BME280_pressure;Samples;Min_cycle;Max_cycle;Signal;HPM_P1;HPM_P2
2021/03/17 00:01:12;;;;;;;4.05;2.45;;;;;;;;;;5016445;28;20187;-83
2021/03/17 00:03:39;;;;;;;3.92;2.95;;;;;;;;;;5015613;28;20202;-85
2021/03/17 00:06:06;;;;;;;6.47;2.58;;;;;;;;;;5015822;28;20211;-84
2021/03/17 00:08:34;;;;;;;4.30;2.00;;;;;;;;;;5032254;28;20190;-85
2021/03/17 00:11:01;;;;;;;10.05;2.40;;;;;;;;;;5035075;28;20252;-85
2021/03/17 00:13:29;;;;;;;3.65;1.70;;;;;;;;;;5035504;28;20198;-85
2021/03/17 00:15:59;;;;;;;6.72;1.92;;;;;;;;;;5036105;28;20601;-84
2021/03/17 00:18:26;;;;;;;9.00;2.97;;;;;;;;;;5034070;28;20175;-84
2021/03/17 00:20:53;;;;;;;4.65;2.38;;;;;;;;;;5035288;28;20205;-84
2021/03/17 00:23:20;;;;;;;3.40;1.80;;;;;;;;;;5035562;28;20194;-83
2021/03/17 00:25:48;;;;;;;5.43;2.03;;;;;;;;;;5035133;28;20656;-85
2021/03/17 00:28:16;;;;;;;7.97;3.33;;;;;;;;;;5035493;28;20226;-84
2021/03/17 00:30:43;;;;;;;4.47;2.35;;;;;;;;;;5035706;28;20187;-84
2021/03/17 00:33:12;;;;;;;7.10;3.75;;;;;;;;;;5035265;28;20206;-85
2021/03/17 00:35:40;;;;;;;4.80;2.40;;;;;;;;;;5036038;28;20241;-85
2021/03/17 00:38:07;;;;;;;4.50;3.03;;;;;;;;;;5035189;28;20218;-84
2021/03/17 00:40:35;;;;;;;7.43;3.15;;;;;;;;;;5035977;28;20190;-84
2021/03/17 00:43:03;;;;;;;7.15;3.17;;;;;;;;;;5035711;28;20554;-84
2021/03/17 00:45:30;;;;;;;6.50;3.05;;;;;;;;;;5035392;28;20182;-85
2021/03/17 00:47:57;;;;;;;3.58;2.47;;;;;;;;;;5035170;28;20234;-84
2021/03/17 00:50:25;;;;;;;8.88;2.58;;;;;;;;;;5035585;28;20206;-84
2021/03/17 00:52:52;;;;;;;4.95;3.42;;;;;;;;;;5035581;28;20604;-84
2021/03/17 00:55:19;;;;;;;12.48;3.50;;;;;;;;;;5035783;28;20306;-85
2021/03/17 00:57:45;;;;;;;4.03;2.50;;;;;;;;;;5035299;28;20218;-85
2021/03/17 01:00:16;;;;;;;14.13;4.47;;;;;;;;;;5035002;28;20198;-85
2021/03/17 01:02:43;;;;;;;7.35;2.67;;;;;;;;;;5035019;28;20213;-85
2021/03/17 01:05:11;;;;;;;6.95;2.83;;;;;;;;;;5035081;28;20207;-85
2021/03/17 01:07:39;;;;;;;8.45;3.25;;;;;;;;;;5032868;28;20614;-84
2021/03/17 01:10:10;;;;;;;4.35;2.40;;;;;;;;;;5032530;28;20230;-84
2021/03/17 01:12:37;;;;;;;7.57;3.00;;;;;;;;;;5033316;28;20304;-84
2021/03/17 01:15:06;;;;;;;10.27;2.83;;;;;;;;;;5032364;28;20198;-84
2021/03/17 01:17:34;;;;;;;8.50;2.50;;;;;;;;;;5031753;28;20276;-84
2021/03/17 01:20:01;;;;;;;6.05;3.15;;;;;;;;;;5032969;28;20186;-84
2021/03/17 01:22:31;;;;;;;6.78;2.78;;;;;;;;;;5032232;28;20191;-84
2021/03/17 01:24:58;;;;;;;4.03;2.88;;;;;;;;;;5034940;28;20202;-85
2021/03/17 01:27:25;;;;;;;5.90;2.60;;;;;;;;;;5034546;28;20229;-85
2021/03/17 01:29:51;;;;;;;6.97;2.70;;;;;;;;;;5035219;28;20198;-85
2021/03/17 01:32:19;;;;;;;3.70;2.53;;;;;;;;;;5034727;28;20190;-84
2021/03/17 01:34:47;;;;;;;6.03;2.50;;;;;;;;;;5033767;28;20243;-84
2021/03/17 01:37:14;;;;;;;6.45;2.78;;;;;;;;;;5034428;28;20237;-85
2021/03/17 01:39:41;;;;;;;4.20;2.88;;;;;;;;;;5035649;28;20521;-85
2021/03/17 01:42:08;;;;;;;4.50;2.38;;;;;;;;;;5035450;28;20190;-85
2021/03/17 01:44:35;;;;;;;9.43;2.65;;;;;;;;;;5034707;28;20203;-85
2021/03/17 01:47:03;;;;;;;4.05;2.33;;;;;;;;;;5034002;28;20234;-85
2021/03/17 01:49:30;;;;;;;6.72;2.53;;;;;;;;;;5034649;28;20195;-84
2021/03/17 01:51:58;;;;;;;9.32;4.63;;;;;;;;;;5034441;28;20186;-85
2021/03/17 01:54:25;;;;;;;5.93;2.10;;;;;;;;;;5034706;28;20202;-85
2021/03/17 01:56:54;;;;;;;4.47;2.53;;;;;;;;;;5034659;28;20222;-85
2021/03/17 01:59:23;;;;;;;7.70;2.25;;;;;;;;;;5034143;28;20207;-84
2021/03/17 02:01:51;;;;;;;9.30;2.08;;;;;;;;;;5034350;28;20207;-84
2021/03/17 02:04:17;;;;;;;6.07;3.40;;;;;;;;;;5035090;28;20559;-85
2021/03/17 02:06:44;;;;;;;8.35;2.38;;;;;;;;;;5034436;28;20230;-85
2021/03/17 02:09:12;;;;;;;2.75;1.90;;;;;;;;;;5034909;28;20198;-84
2021/03/17 02:11:43;;;;;;;6.07;2.45;;;;;;;;;;5034834;28;20229;-84
2021/03/17 02:14:24;;;;;;;8.15;2.72;;;;;;;;;;5035268;28;20202;-85
2021/03/17 02:16:57;;;;;;;3.28;2.10;;;;;;;;;;5034431;28;20222;-85
2021/03/17 02:20:09;;;;;;;6.93;2.42;;;;;;;;;;5034196;28;20205;-84
2021/03/17 02:22:54;;;;;;;7.43;3.20;;;;;;;;;;5035369;28;20236;-85
2021/03/17 02:26:02;;;;;;;4.43;2.67;;;;;;;;;;5034877;28;20206;-85
2021/03/17 02:28:35;;;;;;;5.28;2.58;;;;;;;;;;5034663;28;20232;-84
2021/03/17 02:31:39;;;;;;;6.05;3.28;;;;;;;;;;5035020;28;20225;-85
2021/03/17 02:34:09;;;;;;;4.57;2.15;;;;;;;;;;5035303;28;20190;-84
2021/03/17 02:36:42;;;;;;;4.30;2.05;;;;;;;;;;5034706;28;20744;-85
2021/03/17 02:39:14;;;;;;;8.02;2.47;;;;;;;;;;5035166;28;20629;-85
2021/03/17 02:41:48;;;;;;;3.65;2.15;;;;;;;;;;5035413;28;20589;-84
2021/03/17 02:44:18;;;;;;;4.35;2.55;;;;;;;;;;5035511;28;20191;-85
2021/03/17 02:46:46;;;;;;;6.70;2.78;;;;;;;;;;5034701;28;20226;-85
2021/03/17 02:49:19;;;;;;;9.43;2.65;;;;;;;;;;5034681;28;20203;-86
2021/03/17 02:51:50;;;;;;;5.72;1.88;;;;;;;;;;5034929;28;20213;-84
2021/03/17 02:54:20;;;;;;;6.70;2.75;;;;;;;;;;5034403;28;20208;-85
2021/03/17 02:56:52;;;;;;;4.35;2.58;;;;;;;;;;5035107;28;20223;-85
2021/03/17 02:59:20;;;;;;;10.07;2.58;;;;;;;;;;5035512;28;20191;-85
2021/03/17 03:01:51;;;;;;;8.65;2.95;;;;;;;;;;5035404;28;20202;-84
2021/03/17 03:04:21;;;;;;;5.32;2.00;;;;;;;;;;5034321;28;20233;-84
2021/03/17 03:06:50;;;;;;;7.95;2.45;;;;;;;;;;5033298;28;20222;-84
2021/03/17 03:09:19;;;;;;;4.20;2.30;;;;;;;;;;5034269;28;20190;-85
2021/03/17 03:11:48;;;;;;;6.38;2.83;;;;;;;;;;5034849;28;20244;-85
2021/03/17 03:14:15;;;;;;;6.85;2.35;;;;;;;;;;5034721;28;20187;-85
2021/03/17 03:16:43;;;;;;;5.07;2.20;;;;;;;;;;5034738;28;20283;-85
2021/03/17 03:19:10;;;;;;;6.53;2.45;;;;;;;;;;5035323;28;20205;-86
2021/03/17 03:21:38;;;;;;;7.10;3.20;;;;;;;;;;5037237;28;20190;-85
2021/03/17 03:24:06;;;;;;;6.00;2.80;;;;;;;;;;5038356;28;20206;-84
2021/03/17 03:26:34;;;;;;;4.40;1.80;;;;;;;;;;5038015;28;20218;-85
2021/03/17 03:29:04;;;;;;;3.75;1.98;;;;;;;;;;5038290;28;20240;-85
2021/03/17 03:31:31;;;;;;;12.40;2.78;;;;;;;;;;5039032;28;20206;-85
2021/03/17 03:33:58;;;;;;;4.72;2.47;;;;;;;;;;5037976;28;20201;-84
2021/03/17 03:36:26;;;;;;;6.40;3.00;;;;;;;;;;5038248;28;20232;-84
2021/03/17 03:38:56;;;;;;;13.20;3.55;;;;;;;;;;5039272;28;20589;-85
2021/03/17 03:41:23;;;;;;;6.03;1.88;;;;;;;;;;5037889;28;20217;-85
2021/03/17 03:43:51;;;;;;;6.60;2.08;;;;;;;;;;5038776;28;20206;-84
2021/03/17 03:46:17;;;;;;;5.93;1.70;;;;;;;;;;5037929;28;20231;-86
2021/03/17 03:48:44;;;;;;;6.30;2.47;;;;;;;;;;5037877;28;20718;-84
2021/03/17 03:51:12;;;;;;;5.43;1.83;;;;;;;;;;5038373;28;20596;-85
2021/03/17 03:53:54;;;;;;;5.22;2.15;;;;;;;;;;5038872;28;20218;-85
2021/03/17 03:56:26;;;;;;;6.35;2.13;;;;;;;;;;5038569;28;20222;-85
2021/03/17 03:58:56;;;;;;;5.80;2.45;;;;;;;;;;5038335;28;20209;-85
2021/03/17 04:01:29;;;;;;;3.50;2.00;;;;;;;;;;5038208;28;20203;-85
2021/03/17 04:04:01;;;;;;;4.03;2.35;;;;;;;;;;5038201;28;20191;-85
2021/03/17 04:06:29;;;;;;;7.22;1.73;;;;;;;;;;5037863;28;20223;-85
2021/03/17 04:08:58;;;;;;;4.63;2.50;;;;;;;;;;5038570;28;20221;-85
2021/03/17 04:11:26;;;;;;;5.45;2.50;;;;;;;;;;5038129;28;20234;-85
2021/03/17 04:13:53;;;;;;;5.65;1.90;;;;;;;;;;5038678;28;20722;-85
2021/03/17 04:16:22;;;;;;;2.75;1.52;;;;;;;;;;5038330;28;20230;-85
2021/03/17 04:18:51;;;;;;;2.83;2.13;;;;;;;;;;5038286;28;20241;-84
2021/03/17 04:21:21;;;;;;;4.50;2.15;;;;;;;;;;5038572;28;20466;-85
2021/03/17 04:23:50;;;;;;;5.18;2.83;;;;;;;;;;5037488;28;20195;-85
2021/03/17 04:26:19;;;;;;;10.13;2.25;;;;;;;;;;5038110;28;20645;-86
2021/03/17 04:28:47;;;;;;;3.35;1.90;;;;;;;;;;5037851;28;20206;-84
2021/03/17 04:31:15;;;;;;;2.45;2.00;;;;;;;;;;5039023;28;20194;-86
2021/03/17 04:33:44;;;;;;;3.13;1.50;;;;;;;;;;5038507;28;20191;-86
2021/03/17 04:36:12;;;;;;;4.50;1.73;;;;;;;;;;5038970;28;20198;-85
2021/03/17 04:38:40;;;;;;;3.47;1.80;;;;;;;;;;5038239;28;20202;-85
2021/03/17 04:41:07;;;;;;;3.10;2.13;;;;;;;;;;5037964;28;20607;-84
2021/03/17 04:43:37;;;;;;;4.80;1.92;;;;;;;;;;5038277;28;20225;-85
2021/03/17 04:46:05;;;;;;;2.03;1.63;;;;;;;;;;5037629;28;20191;-85
2021/03/17 04:48:35;;;;;;;6.78;2.60;;;;;;;;;;5038190;28;20263;-85
2021/03/17 04:51:02;;;;;;;2.78;1.80;;;;;;;;;;5038166;28;20191;-84
2021/03/17 04:53:29;;;;;;;2.85;1.73;;;;;;;;;;5035757;28;20193;-85
2021/03/17 04:55:56;;;;;;;2.53;2.33;;;;;;;;;;5030959;28;20209;-84
2021/03/17 04:58:25;;;;;;;2.80;1.63;;;;;;;;;;5031761;28;20221;-84
2021/03/17 05:00:54;;;;;;;3.90;2.05;;;;;;;;;;5031298;28;20179;-83
2021/03/17 05:03:24;;;;;;;2.58;1.40;;;;;;;;;;5031655;28;20194;-84
2021/03/17 05:05:53;;;;;;;1.67;1.45;;;;;;;;;;5031334;28;20185;-84
2021/03/17 05:08:21;;;;;;;5.97;2.42;;;;;;;;;;5031056;28;20226;-83
2021/03/17 05:10:49;;;;;;;4.88;1.92;;;;;;;;;;5030463;28;20283;-83
2021/03/17 05:13:18;;;;;;;2.72;1.65;;;;;;;;;;5031564;28;20625;-83
2021/03/17 05:15:47;;;;;;;4.43;2.22;;;;;;;;;;5030933;28;20194;-84
2021/03/17 05:18:18;;;;;;;1.50;1.40;;;;;;;;;;5031386;28;20261;-83
2021/03/17 05:20:47;;;;;;;2.33;1.73;;;;;;;;;;5031373;28;20257;-84
2021/03/17 05:23:16;;;;;;;3.50;1.52;;;;;;;;;;5031212;28;20187;-84
2021/03/17 05:25:44;;;;;;;3.65;2.38;;;;;;;;;;5030502;28;20668;-84
2021/03/17 05:28:15;;;;;;;3.38;2.00;;;;;;;;;;5031570;28;20236;-83
2021/03/17 05:30:43;;;;;;;4.05;2.08;;;;;;;;;;5031457;28;20198;-85
2021/03/17 05:33:12;;;;;;;3.20;1.83;;;;;;;;;;5031077;28;20645;-84
2021/03/17 05:35:40;;;;;;;2.60;1.52;;;;;;;;;;5031035;28;20248;-84
2021/03/17 05:38:07;;;;;;;3.00;2.30;;;;;;;;;;5030858;28;20219;-83
2021/03/17 05:40:36;;;;;;;3.75;2.50;;;;;;;;;;5031008;28;20209;-84
2021/03/17 05:43:05;;;;;;;3.85;2.33;;;;;;;;;;5030289;28;20213;-84
2021/03/17 05:45:34;;;;;;;5.32;2.47;;;;;;;;;;5029839;28;20637;-84
2021/03/17 05:48:18;;;;;;;9.48;3.88;;;;;;;;;;5034309;28;20233;-85
2021/03/17 05:50:48;;;;;;;5.72;3.00;;;;;;;;;;5031091;28;20198;-85
2021/03/17 05:53:16;;;;;;;3.30;2.60;;;;;;;;;;5030536;28;20203;-85
2021/03/17 05:55:49;;;;;;;8.20;3.15;;;;;;;;;;5030330;28;20679;-85
2021/03/17 05:58:16;;;;;;;4.88;2.67;;;;;;;;;;5030428;28;20218;-84
2021/03/17 06:00:44;;;;;;;5.93;3.00;;;;;;;;;;5031130;28;20198;-85
2021/03/17 06:03:13;;;;;;;8.48;3.20;;;;;;;;;;5031069;28;20190;-85
2021/03/17 06:05:41;;;;;;;6.25;3.10;;;;;;;;;;5030939;28;20191;-84
2021/03/17 06:08:14;;;;;;;4.03;3.05;;;;;;;;;;5032207;28;20692;-84
2021/03/17 06:10:42;;;;;;;6.50;4.38;;;;;;;;;;5030494;28;20654;-85
2021/03/17 06:13:11;;;;;;;7.63;3.95;;;;;;;;;;5030312;28;20182;-85
2021/03/17 06:15:39;;;;;;;4.65;2.92;;;;;;;;;;5029384;28;20214;-85
2021/03/17 06:18:13;;;;;;;4.80;2.83;;;;;;;;;;5029745;28;20222;-86
2021/03/17 06:20:43;;;;;;;7.78;3.58;;;;;;;;;;5029835;28;20212;-85
2021/03/17 06:23:11;;;;;;;7.65;5.07;;;;;;;;;;5030354;28;20191;-86
2021/03/17 06:25:38;;;;;;;9.75;3.28;;;;;;;;;;5029521;28;20253;-86
2021/03/17 06:28:08;;;;;;;5.25;3.88;;;;;;;;;;5029800;28;20245;-85
2021/03/17 06:30:35;;;;;;;4.75;3.58;;;;;;;;;;5030478;28;20227;-85
2021/03/17 06:33:02;;;;;;;6.53;4.35;;;;;;;;;;5030405;28;20215;-85
2021/03/17 06:35:29;;;;;;;6.18;3.53;;;;;;;;;;5029508;28;20277;-85
2021/03/17 06:37:58;;;;;;;6.22;4.90;;;;;;;;;;5031238;28;20289;-85
2021/03/17 06:40:32;;;;;;;8.15;5.38;;;;;;;;;;5030346;28;20206;-85
2021/03/17 06:43:06;;;;;;;8.00;4.13;;;;;;;;;;5030027;28;20197;-85
2021/03/17 06:45:37;;;;;;;11.45;4.80;;;;;;;;;;5029942;28;20207;-85
2021/03/17 06:48:22;;;;;;;9.85;4.63;;;;;;;;;;5030354;28;20621;-86
2021/03/17 06:51:05;;;;;;;6.40;4.82;;;;;;;;;;5030022;28;20281;-85
2021/03/17 06:53:44;;;;;;;4.90;4.03;;;;;;;;;;5029848;28;20210;-86
2021/03/17 06:56:14;;;;;;;6.38;3.75;;;;;;;;;;5032552;28;20213;-86
2021/03/17 06:58:42;;;;;;;8.25;4.60;;;;;;;;;;5034226;28;20202;-86
2021/03/17 07:01:36;;;;;;;7.53;4.35;;;;;;;;;;5035708;28;20664;-85
2021/03/17 07:04:05;;;;;;;15.02;4.78;;;;;;;;;;5034270;28;20214;-85
2021/03/17 07:06:33;;;;;;;11.50;4.53;;;;;;;;;;5033865;28;20272;-84
2021/03/17 07:09:18;;;;;;;6.10;4.45;;;;;;;;;;5034017;28;20534;-86
2021/03/17 07:11:47;;;;;;;9.05;5.03;;;;;;;;;;5036366;28;20209;-85
2021/03/17 07:14:15;;;;;;;5.90;4.18;;;;;;;;;;5034523;28;20190;-85
2021/03/17 07:16:46;;;;;;;8.52;4.78;;;;;;;;;;5033115;28;20226;-83
2021/03/17 07:19:32;;;;;;;6.15;4.35;;;;;;;;;;5033264;28;20206;-84
2021/03/17 07:22:05;;;;;;;5.70;3.50;;;;;;;;;;5033387;28;20256;-83
2021/03/17 07:24:32;;;;;;;5.05;4.18;;;;;;;;;;5033107;28;20210;-84
2021/03/17 07:27:14;;;;;;;5.53;4.03;;;;;;;;;;5032955;28;20237;-84
2021/03/17 07:29:41;;;;;;;7.97;3.92;;;;;;;;;;5033190;28;20225;-85
2021/03/17 07:32:08;;;;;;;4.53;4.10;;;;;;;;;;5033964;28;20593;-85
2021/03/17 07:34:35;;;;;;;6.43;3.65;;;;;;;;;;5033097;28;20553;-84
2021/03/17 07:37:04;;;;;;;9.55;4.78;;;;;;;;;;5033279;28;20225;-85
2021/03/17 07:39:34;;;;;;;5.50;3.78;;;;;;;;;;5032935;28;20233;-85
2021/03/17 07:42:04;;;;;;;5.68;3.75;;;;;;;;;;5032855;28;20297;-83
2021/03/17 07:44:32;;;;;;;5.75;3.85;;;;;;;;;;5033132;28;20217;-85
2021/03/17 07:47:01;;;;;;;6.07;3.45;;;;;;;;;;5032579;28;20222;-85
2021/03/17 07:49:29;;;;;;;6.72;4.00;;;;;;;;;;5033052;28;20241;-85
2021/03/17 07:51:59;;;;;;;6.57;4.43;;;;;;;;;;5033555;28;20202;-85
2021/03/17 07:54:31;;;;;;;7.00;4.18;;;;;;;;;;5032986;28;20297;-86
2021/03/17 07:56:59;;;;;;;5.10;4.60;;;;;;;;;;5032294;28;20230;-84
2021/03/17 07:59:27;;;;;;;7.15;3.90;;;;;;;;;;5032630;28;20216;-85
2021/03/17 08:01:57;;;;;;;5.38;4.22;;;;;;;;;;5032668;28;20210;-84
2021/03/17 08:04:27;;;;;;;7.63;4.88;;;;;;;;;;5032752;28;20194;-85
2021/03/17 08:06:56;;;;;;;11.48;4.63;;;;;;;;;;5031368;28;20226;-85
2021/03/17 08:09:23;;;;;;;5.18;4.38;;;;;;;;;;5031755;28;20651;-84
2021/03/17 08:11:51;;;;;;;9.35;4.25;;;;;;;;;;5032261;28;20668;-84
2021/03/17 08:14:19;;;;;;;7.97;4.47;;;;;;;;;;5032353;28;20198;-85
2021/03/17 08:16:47;;;;;;;5.57;3.83;;;;;;;;;;5032211;28;20246;-84
2021/03/17 08:19:23;;;;;;;7.15;4.25;;;;;;;;;;5032565;28;20577;-85
2021/03/17 08:21:53;;;;;;;5.28;4.78;;;;;;;;;;5032587;28;20232;-85
2021/03/17 08:24:41;;;;;;;7.90;4.88;;;;;;;;;;5032149;28;20245;-84
2021/03/17 08:27:26;;;;;;;7.93;5.00;;;;;;;;;;5032554;28;20218;-85
2021/03/17 08:30:07;;;;;;;6.68;4.05;;;;;;;;;;5031991;28;20696;-85
2021/03/17 08:32:59;;;;;;;7.40;5.47;;;;;;;;;;5032078;28;20210;-85
2021/03/17 08:35:41;;;;;;;6.18;4.20;;;;;;;;;;5031365;28;20207;-85
2021/03/17 08:38:14;;;;;;;5.57;4.20;;;;;;;;;;5031578;28;20248;-85
2021/03/17 08:40:49;;;;;;;10.73;5.00;;;;;;;;;;5032028;28;20205;-85
2021/03/17 08:43:48;;;;;;;8.32;4.50;;;;;;;;;;5031835;28;20198;-85
2021/03/17 08:46:18;;;;;;;9.40;4.85;;;;;;;;;;5027313;28;20743;-85
2021/03/17 08:49:02;;;;;;;4.75;4.28;;;;;;;;;;5031430;28;20236;-84
2021/03/17 08:52:06;;;;;;;11.85;5.38;;;;;;;;;;5031454;28;20229;-85
2021/03/17 08:55:10;;;;;;;8.18;4.13;;;;;;;;;;5031535;28;20226;-85
2021/03/17 08:58:06;;;;;;;5.47;4.85;;;;;;;;;;5031986;28;20228;-85
2021/03/17 09:00:54;;;;;;;8.65;4.47;;;;;;;;;;5028688;28;20202;-85
2021/03/17 09:03:48;;;;;;;7.70;4.13;;;;;;;;;;5031189;28;20561;-85
2021/03/17 09:06:28;;;;;;;3.47;3.17;;;;;;;;;;5030704;28;20573;-85
2021/03/17 09:09:06;;;;;;;5.65;3.97;;;;;;;;;;5031196;28;20252;-85
2021/03/17 09:11:59;;;;;;;6.80;4.38;;;;;;;;;;5031180;28;20213;-85
2021/03/17 09:14:32;;;;;;;6.45;4.75;;;;;;;;;;5031440;28;20340;-85
2021/03/17 09:17:30;;;;;;;10.00;4.85;;;;;;;;;;5030820;28;20268;-86
2021/03/17 09:20:24;;;;;;;8.45;3.78;;;;;;;;;;5031060;28;20434;-85
2021/03/17 09:23:05;;;;;;;5.40;3.97;;;;;;;;;;5031014;28;20195;-86
2021/03/17 09:25:36;;;;;;;7.20;3.50;;;;;;;;;;5030818;28;20756;-86
2021/03/17 09:28:06;;;;;;;7.15;4.15;;;;;;;;;;5030998;28;20232;-86
2021/03/17 09:30:49;;;;;;;5.95;3.70;;;;;;;;;;5030891;28;20222;-86
2021/03/17 09:33:20;;;;;;;11.07;3.70;;;;;;;;;;5030678;28;20631;-86
2021/03/17 09:35:51;;;;;;;4.88;3.67;;;;;;;;;;5031339;28;20698;-86
2021/03/17 09:38:20;;;;;;;6.35;4.47;;;;;;;;;;5030677;28;20683;-86
2021/03/17 09:41:00;;;;;;;8.20;4.45;;;;;;;;;;5030653;28;20661;-86
2021/03/17 09:43:43;;;;;;;6.97;4.18;;;;;;;;;;5030518;28;20206;-86
2021/03/17 09:46:31;;;;;;;6.68;4.20;;;;;;;;;;5030390;28;20672;-87
2021/03/17 09:49:04;;;;;;;7.85;3.92;;;;;;;;;;5030485;28;20288;-86
2021/03/17 09:51:33;;;;;;;5.00;3.80;;;;;;;;;;5030108;28;20292;-86
2021/03/17 09:54:03;;;;;;;8.75;3.40;;;;;;;;;;5030479;28;20271;-86
2021/03/17 09:56:45;;;;;;;4.85;3.70;;;;;;;;;;5030240;28;20234;-86
2021/03/17 09:59:26;;;;;;;3.92;2.80;;;;;;;;;;5030417;28;20205;-85
2021/03/17 10:01:57;;;;;;;4.65;3.20;;;;;;;;;;5030147;28;20213;-87
2021/03/17 10:04:25;;;;;;;4.22;3.05;;;;;;;;;;5030573;28;20198;-86
2021/03/17 10:06:54;;;;;;;2.85;2.42;;;;;;;;;;5030039;28;20287;-87
2021/03/17 10:09:26;;;;;;;6.93;2.40;;;;;;;;;;5030290;28;20638;-86
2021/03/17 10:12:00;;;;;;;8.55;3.55;;;;;;;;;;5030196;28;20206;-86
2021/03/17 10:18:07;;;;;;;2.83;2.00;;;;;;;;;;4190050;27;25356504;-86
2021/03/17 10:20:34;;;;;;;3.13;2.00;;;;;;;;;;5066562;28;20551;-86
2021/03/17 10:24:20;;;;;;;3.97;2.05;;;;;;;;;;5066534;28;20568;-86
2021/03/17 10:26:48;;;;;;;3.50;1.92;;;;;;;;;;5062950;28;20213;-86
2021/03/17 10:29:15;;;;;;;2.33;1.83;;;;;;;;;;5066522;28;20193;-85
2021/03/17 10:31:42;;;;;;;2.53;1.63;;;;;;;;;;5066540;28;20193;-85
2021/03/17 10:34:16;;;;;;;4.03;1.95;;;;;;;;;;5066488;28;20197;-85
2021/03/17 10:36:43;;;;;;;4.22;2.15;;;;;;;;;;5064246;28;20220;-86
2021/03/17 10:39:10;;;;;;;6.78;2.35;;;;;;;;;;5066582;28;20204;-86
2021/03/17 10:41:42;;;;;;;2.92;2.10;;;;;;;;;;5066859;28;20426;-86
2021/03/17 10:44:17;;;;;;;3.67;1.63;;;;;;;;;;5067523;28;20200;-85
2021/03/17 10:47:05;;;;;;;2.83;1.92;;;;;;;;;;5064491;28;20223;-85
2021/03/17 10:49:35;;;;;;;1.73;1.35;;;;;;;;;;5060812;28;20193;-87
2021/03/17 10:52:02;;;;;;;2.90;1.67;;;;;;;;;;5066337;28;20201;-86
2021/03/17 10:54:35;;;;;;;1.30;1.20;;;;;;;;;;5066553;28;20197;-86
2021/03/17 10:57:03;;;;;;;3.22;1.40;;;;;;;;;;5063586;28;20225;-86
2021/03/17 10:59:33;;;;;;;2.50;1.33;;;;;;;;;;5066387;28;20644;-87
2021/03/17 11:02:24;;;;;;;4.07;1.38;;;;;;;;;;5061175;28;20200;-86
2021/03/17 11:05:13;;;;;;;5.07;1.73;;;;;;;;;;5064814;28;20646;-87
2021/03/17 11:07:52;;;;;;;1.98;1.30;;;;;;;;;;5066447;28;20265;-85
2021/03/17 11:10:37;;;;;;;1.35;1.15;;;;;;;;;;5067206;28;20231;-86
2021/03/17 11:13:29;;;;;;;2.47;1.63;;;;;;;;;;5067075;28;20185;-87
2021/03/17 11:16:03;;;;;;;1.98;1.40;;;;;;;;;;5066596;28;20288;-87
2021/03/17 11:18:31;;;;;;;2.38;1.52;;;;;;;;;;5066708;28;20628;-86
2021/03/17 11:21:01;;;;;;;3.90;2.58;;;;;;;;;;5066559;28;20197;-85
2021/03/17 11:23:31;;;;;;;5.78;2.58;;;;;;;;;;5066489;28;20197;-85
2021/03/17 11:26:00;;;;;;;5.72;1.95;;;;;;;;;;5066708;28;20185;-86
2021/03/17 11:28:31;;;;;;;2.60;1.70;;;;;;;;;;5058667;28;20198;-85
2021/03/17 11:31:01;;;;;;;3.70;1.60;;;;;;;;;;5053428;28;20268;-87
2021/03/17 11:33:29;;;;;;;2.03;1.50;;;;;;;;;;5053229;28;20192;-86
2021/03/17 11:36:02;;;;;;;4.20;2.85;;;;;;;;;;5052884;28;20186;-86
2021/03/17 11:38:29;;;;;;;3.25;2.05;;;;;;;;;;5053010;28;20550;-87
2021/03/17 11:40:58;;;;;;;3.72;2.25;;;;;;;;;;5052672;28;20205;-86
2021/03/17 11:43:28;;;;;;;4.35;2.15;;;;;;;;;;5052926;28;20754;-86
2021/03/17 11:45:56;;;;;;;5.35;1.67;;;;;;;;;;5052958;28;20663;-86
2021/03/17 11:48:24;;;;;;;5.70;2.55;;;;;;;;;;5053435;28;20214;-86
2021/03/17 11:50:54;;;;;;;3.10;1.75;;;;;;;;;;5053805;28;20193;-86
2021/03/17 11:53:22;;;;;;;3.72;1.98;;;;;;;;;;5053534;28;20186;-86
2021/03/17 11:55:50;;;;;;;3.22;2.30;;;;;;;;;;5052910;28;20186;-86
2021/03/17 11:58:17;;;;;;;5.88;2.67;;;;;;;;;;5052961;28;20275;-85
2021/03/17 12:00:44;;;;;;;4.38;2.22;;;;;;;;;;5052288;28;20189;-86
2021/03/17 12:03:11;;;;;;;7.03;2.08;;;;;;;;;;5053060;28;20185;-87
2021/03/17 12:05:40;;;;;;;2.28;2.03;;;;;;;;;;5052984;28;20561;-86
2021/03/17 12:08:08;;;;;;;2.35;2.15;;;;;;;;;;5053019;28;20214;-86
2021/03/17 12:10:36;;;;;;;1.90;1.80;;;;;;;;;;5052673;28;20189;-85
2021/03/17 12:13:04;;;;;;;3.30;2.33;;;;;;;;;;5052299;28;20216;-86
2021/03/17 12:15:31;;;;;;;4.25;1.75;;;;;;;;;;5051872;28;20178;-87
2021/03/17 12:17:58;;;;;;;8.63;3.47;;;;;;;;;;5051440;28;20295;-86
2021/03/17 12:20:28;;;;;;;2.92;2.10;;;;;;;;;;5052526;28;20240;-86
2021/03/17 12:22:56;;;;;;;7.15;2.53;;;;;;;;;;5052498;28;20178;-86
2021/03/17 12:25:23;;;;;;;2.90;1.83;;;;;;;;;;5051515;28;20197;-85
2021/03/17 12:27:51;;;;;;;3.90;3.05;;;;;;;;;;5051631;28;20797;-85
2021/03/17 12:30:21;;;;;;;2.22;1.90;;;;;;;;;;5051732;28;20198;-87
2021/03/17 12:32:50;;;;;;;10.93;2.45;;;;;;;;;;5052146;28;20190;-87
2021/03/17 12:35:19;;;;;;;6.10;2.50;;;;;;;;;;5050273;28;20662;-87
2021/03/17 12:37:48;;;;;;;2.50;1.88;;;;;;;;;;5050400;28;20217;-86
2021/03/17 12:40:20;;;;;;;6.32;2.75;;;;;;;;;;5049994;28;20256;-85
2021/03/17 12:42:47;;;;;;;3.42;3.13;;;;;;;;;;5048370;28;20205;-84
2021/03/17 12:45:19;;;;;;;4.68;2.42;;;;;;;;;;5049839;28;20194;-86
2021/03/17 12:47:46;;;;;;;5.10;2.92;;;;;;;;;;5051271;28;20213;-86
2021/03/17 12:50:16;;;;;;;3.10;2.47;;;;;;;;;;5051011;28;20272;-86
2021/03/17 12:52:43;;;;;;;4.05;2.97;;;;;;;;;;5048493;28;20185;-85
2021/03/17 12:55:11;;;;;;;4.15;2.55;;;;;;;;;;5050715;28;20197;-86
2021/03/17 12:57:39;;;;;;;4.00;2.28;;;;;;;;;;5051121;28;20623;-86
2021/03/17 13:00:09;;;;;;;6.32;2.55;;;;;;;;;;5050773;28;20205;-86
2021/03/17 13:02:38;;;;;;;5.40;2.30;;;;;;;;;;5051660;28;20206;-85
2021/03/17 13:05:07;;;;;;;4.88;2.53;;;;;;;;;;5051724;28;20186;-85
2021/03/17 13:07:34;;;;;;;16.45;2.78;;;;;;;;;;5051888;28;20557;-87
2021/03/17 13:10:01;;;;;;;3.38;2.22;;;;;;;;;;5051884;28;20214;-85
2021/03/17 13:12:28;;;;;;;2.50;2.28;;;;;;;;;;5051400;28;20227;-85
2021/03/17 13:14:55;;;;;;;3.65;2.25;;;;;;;;;;5051649;28;20204;-86
2021/03/17 13:17:23;;;;;;;5.35;2.28;;;;;;;;;;5050844;28;20328;-86
2021/03/17 13:19:51;;;;;;;4.03;2.60;;;;;;;;;;5051025;28;20227;-85
2021/03/17 13:22:18;;;;;;;2.88;2.55;;;;;;;;;;5051162;28;20198;-86
2021/03/17 13:24:45;;;;;;;3.00;2.47;;;;;;;;;;5051371;28;20216;-87
2021/03/17 13:27:13;;;;;;;3.00;2.80;;;;;;;;;;5051602;28;20287;-86
2021/03/17 13:29:40;;;;;;;3.25;2.88;;;;;;;;;;5053156;28;20193;-86
2021/03/17 13:32:08;;;;;;;2.30;2.10;;;;;;;;;;5052699;28;20194;-87
2021/03/17 13:34:35;;;;;;;3.75;2.60;;;;;;;;;;5052374;28;20182;-87
2021/03/17 13:37:02;;;;;;;3.00;2.53;;;;;;;;;;5052426;28;20226;-86
2021/03/17 13:39:29;;;;;;;4.03;2.30;;;;;;;;;;5052457;28;20581;-86
2021/03/17 13:41:56;;;;;;;5.70;3.03;;;;;;;;;;5051817;28;20259;-86
2021/03/17 13:44:23;;;;;;;6.07;2.63;;;;;;;;;;5052153;28;20205;-85
2021/03/17 13:46:50;;;;;;;3.65;3.20;;;;;;;;;;5051368;28;20221;-87
2021/03/17 13:49:20;;;;;;;5.53;3.13;;;;;;;;;;5052068;28;20189;-86
2021/03/17 13:51:47;;;;;;;3.50;2.33;;;;;;;;;;5051856;28;20190;-86
2021/03/17 13:54:17;;;;;;;4.35;2.45;;;;;;;;;;5051838;28;20636;-86
2021/03/17 13:56:46;;;;;;;3.80;2.38;;;;;;;;;;5050201;28;20271;-86
2021/03/17 13:59:19;;;;;;;4.57;2.47;;;;;;;;;;5051224;28;20206;-87
2021/03/17 14:01:47;;;;;;;5.80;3.17;;;;;;;;;;5051565;28;20672;-87
2021/03/17 14:04:15;;;;;;;5.60;2.78;;;;;;;;;;5051487;28;20197;-86
2021/03/17 14:06:42;;;;;;;3.25;2.70;;;;;;;;;;5050743;28;20221;-87
2021/03/17 14:09:09;;;;;;;4.57;2.42;;;;;;;;;;5050243;28;20676;-87
2021/03/17 14:11:49;;;;;;;6.18;2.90;;;;;;;;;;5049143;28;20198;-86
2021/03/17 14:14:16;;;;;;;5.43;2.92;;;;;;;;;;5048180;28;20197;-87
2021/03/17 14:16:43;;;;;;;3.72;2.50;;;;;;;;;;5049300;28;20217;-87
2021/03/17 14:19:11;;;;;;;6.47;3.50;;;;;;;;;;5051196;28;20214;-86
2021/03/17 14:21:38;;;;;;;7.03;2.92;;;;;;;;;;5047357;28;20193;-87
2021/03/17 14:24:07;;;;;;;3.55;2.50;;;;;;;;;;5049466;28;20198;-88
2021/03/17 14:26:35;;;;;;;4.53;3.25;;;;;;;;;;5049055;28;20271;-87
2021/03/17 14:29:12;;;;;;;3.95;2.55;;;;;;;;;;5050967;28;20247;-86
2021/03/17 14:31:39;;;;;;;3.25;2.60;;;;;;;;;;5050058;28;20671;-88
2021/03/17 14:34:14;;;;;;;4.03;2.30;;;;;;;;;;5050412;28;20259;-87
2021/03/17 14:36:44;;;;;;;4.18;2.75;;;;;;;;;;5051077;28;20221;-86
2021/03/17 14:39:12;;;;;;;3.75;2.78;;;;;;;;;;5050461;28;20271;-87
2021/03/17 14:41:39;;;;;;;2.80;2.55;;;;;;;;;;5050198;28;20200;-88
2021/03/17 14:44:09;;;;;;;3.83;2.40;;;;;;;;;;5050488;28;20190;-86
2021/03/17 14:46:37;;;;;;;6.50;3.45;;;;;;;;;;5050310;28;20222;-87
2021/03/17 14:49:04;;;;;;;3.85;2.67;;;;;;;;;;5050301;28;20204;-86
2021/03/17 14:51:31;;;;;;;6.57;2.60;;;;;;;;;;5050404;28;20257;-86
2021/03/17 14:53:57;;;;;;;4.85;2.92;;;;;;;;;;5050584;28;20202;-87
2021/03/17 14:56:24;;;;;;;4.47;2.78;;;;;;;;;;5050259;28;20644;-87
2021/03/17 14:58:51;;;;;;;3.65;2.78;;;;;;;;;;5050971;28;20228;-87
2021/03/17 15:01:18;;;;;;;3.78;2.33;;;;;;;;;;5050865;28;20201;-87
2021/03/17 15:03:46;;;;;;;4.90;2.13;;;;;;;;;;5051404;28;20206;-87
2021/03/17 15:06:13;;;;;;;2.60;2.22;;;;;;;;;;5053723;28;20205;-87
2021/03/17 15:08:40;;;;;;;4.30;2.30;;;;;;;;;;5054674;28;20194;-87
2021/03/17 15:11:06;;;;;;;8.75;2.90;;;;;;;;;;5054248;28;20210;-87